Overton, Nevada Weather observations

Data are for observation ending at time listed.
 Day   Time    Ave.   Ave.  Ave.  Vector   Max.   Stn.    Total    Solar   Ave.  
  of    of     Air    Rel.  Wind   Wind    Wind   Baro.  Precip.   Rad.    Soil  
Year   Day     Temp.  Hum.  Speed  Dir.    Gust   Pres.                    Temp. 
2026   (PST)    F      %     mph   deg.    mph     mb.     in.     W/m2     F   
------------------------------------------------------------------------------
 125    2:20   59.6    37    1.8   108      4.0   960.9    0.00       0    66.0
 125    2:30   59.4    37    0.2   112      2.6   961.0    0.00       0    65.6
 125    2:40   57.4    41    0.4   233      2.2   961.0    0.00       0    65.4
 125    2:50   57.4    39    0.9   269      2.3   960.9    0.00       0    65.2
 125    3:00   55.3    44    2.1   352      3.2   961.0    0.00       0    63.8
 125    3:10   54.9    45    0.1     2      1.3   960.8    0.00       0    64.0
 125    3:20   56.2    42    0.3   187      2.0   960.8    0.00       0    64.4
 125    3:30   56.8    40    1.5   239      2.9   960.8    0.00       0    64.2
 125    3:40   57.0    39    2.0   267      3.4   960.8    0.00       0    64.2
 125    3:50   55.4    41    1.7   315      3.4   960.9    0.00       0    63.1
 125    4:00   54.6    43    1.3   297      3.7   960.8    0.00       0    62.8
 125    4:10   53.7    45    0.9   359      2.0   960.8    0.00       0    62.2
 125    4:20   53.0    48    1.5     2      2.1   960.8    0.00       0    61.9
 125    4:30   52.4    49    1.9   318      3.1   960.8    0.00       1    61.8
 125    4:40   54.2    44    0.8   295      2.2   960.8    0.00       3    62.3
 125    4:50   54.3    43    0.3   220      1.5   960.8    0.00       7    62.4
 125    5:00   55.0    42    1.0   213      2.6   960.7    0.00      17    63.3
 125    5:10   53.2    48    4.0   349      6.9   960.8    0.00      44    62.6
 125    5:20   54.0    46    4.2   331      7.2   960.9    0.00      68    64.3
 125    5:30   56.1    43    0.2    16      2.0   961.1    0.00      98    67.7
 125    5:40   58.3    39    0.8   240      3.1   961.3    0.00     129    70.4
 125    5:50   59.0    38    2.2   297      3.9   961.7    0.00     161    71.3
 125    6:00   59.0    38    3.7   311      5.6   961.9    0.00     196    71.4
 125    6:10   60.7    36    2.8   317      4.9   962.2    0.00     230    73.1
 125    6:20   63.1    33    0.2   340      1.5   962.3    0.00     265    75.0
 125    6:30   65.9    30    0.1   235      1.3   962.5    0.00     301    74.3
 125    6:40   64.8    31    2.4   305      4.7   962.8    0.00     338    76.9
 125    6:50   65.0    32    1.5   331      3.4   963.0    0.00     373    78.4
 125    7:00   65.6    32    0.7   165      3.1   963.1    0.00     409    81.8
 125    7:10   66.2    32    1.7   160      3.7   963.2    0.00     444    83.9
 125    7:20   67.6    33    1.1   115      4.2   963.3    0.00     477    85.6
 125    7:30   69.2    31    2.4    95      7.4   963.4    0.00     512    85.6
 125    7:40   69.0    30    2.7   301      5.9   963.5    0.00     544    87.3
 125    7:50   69.0    30    2.6   306      7.5   963.6    0.00     574    88.8
 125    8:00   70.0    28    1.9   194      5.5   963.7    0.00     608    92.7
 125    8:10   70.7    27    4.4   147      8.8   963.8    0.00     641    92.7
 125    8:20   70.5    27    5.7   152     12.5   963.9    0.00     674    93.4
 125    8:30   70.8    27    5.4   151     12.8   963.8    0.00     711    94.6
 125    8:40   70.7    27    6.4   155     15.6   963.8    0.00     712    94.4
 125    8:50   71.6    26    4.9   149     11.0   963.8    0.00     775    95.9
 125    9:00   71.9    25    5.9   168     11.8   963.8    0.00     788    97.2
 125    9:10   71.4    26    5.9   197     12.1   963.8    0.00     649    95.4
 125    9:20   71.6    26    5.0   179     11.9   963.8    0.00     811    97.9
 125    9:30   72.0    24    7.2   184     13.7   963.7    0.00     628    95.7
 125    9:40   71.4    23    7.6   187     13.6   963.6    0.00     472    93.5
 125    9:50   71.5    23    9.0   187     16.2   963.5    0.00     612    94.0
 125   10:00   72.6    22    6.1   174     13.9   963.4    0.00     910    97.3
 125   10:10   73.5    21    8.2   176     14.8   963.4    0.00     982    97.8
 125   10:20   73.6    20    7.8   187     20.5   963.5    0.00     983    98.3
 125   10:30   73.8    20    9.1   176     14.9   963.5    0.00     899    96.8
 125   10:40   73.7    22    5.4   176     11.5   963.5    0.00     826    96.5
 125   10:50   74.2    21    6.7   163     13.2   963.5    0.00     763    95.1
 125   11:00   74.6    20    4.6   138      9.9   963.4    0.00    1019    96.8
 125   11:10   76.2    18    6.2   175     15.1   963.3    0.00    1008    98.9
 125   11:20   75.2    19    6.3   165     15.4   963.4    0.00     986    98.2
 125   11:30   75.9    18    5.4   179     14.8   963.4    0.00    1004    99.7
 125   11:40   75.7    17    6.8   183     16.5   963.5    0.00    1005    98.8
 125   11:50   75.9    16    4.0   187     12.4   963.4    0.00     996    99.3
 125   12:00   76.7    17    3.2   161     11.9   963.4    0.00     914    99.4
 125   12:10   77.3    16    4.2   116     11.6   963.3    0.00     982    97.9
 125   12:20   77.2    16    5.7   146     11.4   963.3    0.00     977    98.0
 125   12:30   77.2    15    2.9   126      8.3   963.2    0.00     887    95.3
 125   12:40   78.2    15    5.7   153     10.9   963.1    0.00     948    94.1
 125   12:50   78.7    15    3.2   169      8.5   963.1    0.00     934    93.3
 125   13:00   78.2    15    6.0   184     14.5   963.1    0.00     918    92.3
 125   13:10   77.9    15    5.9   176     12.8   963.0    0.00     904    91.4
 125   13:20   77.6    15    4.1   205      9.2   962.9    0.00     889    90.3
 125   13:30   78.1    14    3.9   306     10.6   962.7    0.00     868    88.9
 125   13:40   78.3    14    4.7   103     11.4   962.6    0.00     847    87.9
 125   13:50   78.7    14    4.5   148     11.5   962.6    0.00     825    88.3
 125   14:00   78.8    14    4.4   154      9.6   962.5    0.00     800    88.4
 125   14:10   78.9    14    6.7   176     11.3   962.4    0.00     777    89.3
 125   14:20   78.0    14    5.0   118     11.5   962.4    0.00     750    87.7
 125   14:30   78.9    14    5.6   164     13.7   962.2    0.00     723    88.5
 125   14:40   79.3    14    5.2   137     11.5   962.1    0.00     698    87.9
 125   14:50   79.0    14    3.4   134      9.3   961.9    0.00     669    87.3
 125   15:00   78.8    14    3.9    90      9.1   961.8    0.00     490    86.5
 125   15:10   79.1    14    5.0   162      9.3   961.7    0.00      75    87.1
 125   15:20   79.0    14    4.2   166      8.7   961.6    0.00     323    86.8
 125   15:30   79.3    14    5.0   175     11.0   961.6    0.00     531    87.1
 125   15:40   79.3    14    3.7   208      7.3   961.5    0.00     353    86.5
 125   15:50   79.7    14    3.1   208      8.6   961.5    0.00     473    86.2
 125   16:00   79.6    14    3.9   161      8.0   961.5    0.00     399    86.0
 125   16:10   79.9    14    4.0   182      7.3   961.5    0.00     292    86.0
 125   16:20   79.4    14    4.9   185     10.2   961.5    0.00     379    85.9
 125   16:30   79.2    14    5.8   174     10.7   961.4    0.00     345    85.8
 125   16:40   79.4    14    4.0   136      9.9   961.4    0.00     310    84.8
 125   16:50   79.4    14    4.2   142     10.1   961.4    0.00     179    84.5
 125   17:00   80.0    14    3.3   138      9.8   961.4    0.00     229    84.2
 125   17:10   79.2    14    5.8   170     11.0   961.4    0.00     142    84.3
 125   17:20   78.9    14    4.0   145      8.3   961.4    0.00     136    83.6
 125   17:30   78.6    14    3.3    98      6.6   961.3    0.00     107    82.7
 125   17:40   78.2    14    3.3   110      8.5   961.2    0.00     106    82.4
 125   17:50   77.7    14    3.7   113      8.7   961.1    0.00      62    82.0
 125   18:00   77.0    15    3.2   118      8.3   961.0    0.00      44    81.5
 125   18:10   76.9    16    2.9   122      8.6   960.9    0.00      28    81.0
 125   18:20   75.9    18    3.9   104      8.0   960.9    0.00      16    80.2
 125   18:30   74.6    19    4.1   115      7.5   960.9    0.00       7    79.4
 125   18:40   74.1    19    3.3   116      7.0   960.9    0.00       2    78.9
 125   18:50   74.2    19    3.1   126      7.3   960.9    0.00       1    78.8
 125   19:00   74.4    19    2.9   126      6.2   961.0    0.00       0    78.5
 125   19:10   73.8    20    2.5   128      6.3   961.1    0.00       0    78.1
 125   19:20   73.4    20    2.1   130      5.0   961.2    0.00       0    77.7
 125   19:30   73.1    21    3.0   135      6.4   961.3    0.00       0    77.5
 125   19:40   72.7    21    2.3   123      5.4   961.4    0.00       0    76.9
 125   19:50   71.2    24    2.1   105      4.6   961.5    0.00       0    76.2
 125   20:00   69.4    26    1.9    99      3.4   961.6    0.00       0    75.7
 125   20:10   69.4    26    1.8   111      4.1   961.7    0.00       0    75.5
 125   20:20   69.9    25    1.9   122      3.9   961.8    0.00       0    75.6
 125   20:30   70.3    24    1.6   134      4.4   961.8    0.00       0    75.7
 125   20:40   69.6    25    2.7    88      5.3   961.9    0.00       0    75.2
 125   20:50   68.4    26    3.0    96      4.7   962.0    0.00       0    74.8
 125   21:00   69.3    25    2.2    84      5.0   962.1    0.00       0    74.8
 125   21:10   68.7    26    3.4    96      5.7   962.3    0.00       0    74.2
 125   21:20   69.1    27    1.9   115      4.5   962.6    0.00       0    74.2
 125   21:30   69.5    27    2.8   108      4.5   962.6    0.00       0    73.9
 125   21:40   68.9    28    2.5   110      5.3   962.8    0.00       0    73.5
 125   21:50   68.9    29    2.7   107      5.8   962.9    0.00       0    73.3
 125   22:00   69.0    29    1.9   128      5.3   963.1    0.00       0    73.3
 125   22:10   68.8    29    1.6   120      3.9   963.1    0.00       0    72.9
 125   22:20   68.4    29    1.7   124      3.9   963.2    0.00       0    72.6
 125   22:30   68.2    29    2.3   122      4.3   963.2    0.00       0    72.4
 125   22:40   68.1    28    2.7   113      5.2   963.2    0.00       0    72.1
 125   22:50   67.5    29    3.3   114      6.3   963.2    0.00       0    71.7
 125   23:00   67.1    29    3.6   117      6.3   963.3    0.00       0    71.5
 125   23:10   67.0    30    3.7   117      6.7   963.4    0.00       0    71.3
 125   23:20   67.2    30    3.0   120      6.6   963.4    0.00       0    71.2
 125   23:30   67.2    30    2.9   124      8.3   963.4    0.00       0    71.1
 125   23:40   67.3    29    3.0   122      6.8   963.3    0.00       0    71.0
 125   23:50   67.6    28    3.2   122      7.2   963.3    0.00       0    70.9
 126    0:00   67.6    27    2.6   130      7.3   963.2    0.00       0    70.8
 126    0:10   67.2    28    2.4   125      6.0   963.2    0.00       0    70.5
 126    0:20   67.2    27    2.6   118      5.6   963.2    0.00       0    70.4
 126    0:30   67.2    27    2.8   113      6.4   963.2    0.00       0    70.3
 126    0:40   67.2    27    3.0   114      7.3   963.2    0.00       0    70.2
 126    0:50   67.2    26    2.8   122      7.7   963.2    0.00       0    70.1
 126    1:00   67.4    26    2.5   134      5.8   963.2    0.00       0    70.0
 126    1:10   67.5    26    3.2   137      8.6   963.2    0.00       0    69.9
 126    1:20   67.5    25    3.5   142      7.5   963.3    0.00       0    69.9
 126    1:30   67.1    26    2.7   156      6.4   963.4    0.00       0    69.7
 126    1:40   67.2    25    2.5   151      6.2   963.6    0.00       0    69.6
 126    1:50   67.4    25    2.7   143      6.9   963.6    0.00       0    69.5
 126    2:00   67.3    26    1.9   127      7.1   963.7    0.00       0    69.4
 126    2:10   66.4    27    0.8   105      3.1   963.9    0.00       0    68.9

Return to Overton, Nevada graphs page.


Western Regional Climate Center,wrcc@dri.edu